createdAt,value
2023-04-22T00:00:12.360Z,9.308944
2023-04-22T00:01:12.285Z,9.308969
2023-04-22T00:02:12.387Z,9.309170
2023-04-22T00:06:21.940Z,9.309049
2023-04-22T00:07:54.034Z,9.309007
2023-04-22T00:08:21.811Z,9.309066
2023-04-22T00:09:21.873Z,9.309148
2023-04-22T00:10:21.962Z,9.309008
2023-04-22T00:11:21.845Z,9.309105
2023-04-22T00:12:21.799Z,9.309083
2023-04-22T00:13:21.808Z,9.309097
2023-04-22T00:14:21.799Z,9.309179
2023-04-22T00:15:21.813Z,9.309218
2023-04-22T00:16:21.843Z,9.309016
2023-04-22T00:17:21.832Z,9.309070
2023-04-22T00:18:21.828Z,9.309043
2023-04-22T00:19:21.811Z,9.309070
2023-04-22T00:20:21.744Z,9.309113
2023-04-22T00:21:21.840Z,9.309381
2023-04-22T00:22:21.841Z,9.309206
2023-04-22T00:23:21.768Z,9.309071
2023-04-22T00:24:21.803Z,9.308984
2023-04-22T00:25:21.846Z,9.308992
2023-04-22T00:26:21.766Z,9.308994
2023-04-22T00:27:23.703Z,9.309037
2023-04-22T00:28:21.836Z,9.308994
2023-04-22T00:29:21.838Z,9.309031
2023-04-22T00:30:21.793Z,9.309113
2023-04-22T00:31:21.978Z,9.308747
2023-04-22T00:32:21.861Z,9.308949
2023-04-22T00:33:21.725Z,9.309100
2023-04-22T00:34:21.765Z,9.309067
2023-04-22T00:35:21.756Z,9.309111
2023-04-22T00:36:21.730Z,9.309121
2023-04-22T00:37:21.655Z,9.309068
2023-04-22T00:38:54.077Z,9.309033
2023-04-22T00:39:21.618Z,9.309079
2023-04-22T00:40:21.727Z,9.309106
2023-04-22T00:41:21.837Z,9.309082
2023-04-22T00:42:21.686Z,9.309038
2023-04-22T00:43:21.670Z,9.309035
2023-04-22T00:44:41.034Z,9.309075
2023-04-22T00:45:22.631Z,9.309054
2023-04-22T00:46:21.665Z,9.309114
2023-04-22T00:47:21.682Z,9.309108
2023-04-22T00:48:21.639Z,9.309248
2023-04-22T00:49:21.720Z,9.309122
2023-04-22T00:50:21.646Z,9.309076
2023-04-22T00:51:21.642Z,9.309137
2023-04-22T00:52:21.604Z,9.309136
2023-04-22T00:53:21.596Z,9.309160
2023-04-22T00:54:21.481Z,9.309050
2023-04-22T00:55:21.562Z,9.309017
2023-04-22T00:56:21.612Z,9.309166
2023-04-22T00:57:22.734Z,9.309177
2023-04-22T00:58:21.588Z,9.309141
2023-04-22T00:59:21.545Z,9.309194
2023-04-22T01:00:21.559Z,9.309191
2023-04-22T01:01:21.584Z,9.309080
2023-04-22T01:02:21.636Z,9.309128
2023-04-22T01:03:21.633Z,9.309150
2023-04-22T01:04:53.799Z,9.309107
2023-04-22T01:05:21.388Z,9.309184
2023-04-22T01:06:21.610Z,9.309141
2023-04-22T01:07:21.531Z,9.309180
2023-04-22T01:08:21.454Z,9.309136
2023-04-22T01:09:21.473Z,9.309123
2023-04-22T01:10:21.509Z,9.309031
2023-04-22T01:11:21.591Z,9.309095
2023-04-22T01:12:21.512Z,9.309175
2023-04-22T01:13:21.394Z,9.309136
2023-04-22T01:14:21.495Z,9.309156
2023-04-22T01:15:21.373Z,9.309087
2023-04-22T01:16:21.466Z,9.309121
2023-04-22T01:17:21.666Z,9.309195
2023-04-22T01:18:21.406Z,9.309130
2023-04-22T01:19:21.572Z,9.309095
2023-04-22T01:20:21.413Z,9.309183
2023-04-22T01:21:21.604Z,9.309176
2023-04-22T01:22:21.469Z,9.309109
2023-04-22T01:23:21.427Z,9.309111
2023-04-22T01:24:21.460Z,9.309095
2023-04-22T01:25:21.446Z,9.309130
2023-04-22T01:26:21.486Z,9.309270
2023-04-22T01:27:21.387Z,9.309261
2023-04-22T01:28:21.469Z,9.309175
2023-04-22T01:29:27.885Z,9.309054
2023-04-22T01:30:21.473Z,9.309060
2023-04-22T01:31:21.329Z,9.309125
2023-04-22T01:32:21.470Z,9.309119
2023-04-22T01:33:21.438Z,9.309291
2023-04-22T01:34:21.315Z,9.309105
2023-04-22T01:35:21.316Z,9.309140
2023-04-22T01:36:21.395Z,9.309142
2023-04-22T01:37:21.314Z,9.308984
2023-04-22T01:38:21.406Z,9.309128
2023-04-22T01:39:21.769Z,9.309183
2023-04-22T01:40:21.381Z,9.309126
2023-04-22T01:41:21.299Z,9.308955
2023-04-22T01:42:21.412Z,9.309106
2023-04-22T01:43:21.326Z,9.309154
2023-04-22T01:44:21.463Z,9.309156
2023-04-22T01:45:22.371Z,9.309152
2023-04-22T01:46:21.384Z,9.309169
2023-04-22T01:47:21.143Z,9.309162
2023-04-22T01:48:21.242Z,9.309158
2023-04-22T01:49:21.159Z,9.309161
2023-04-22T01:50:22.469Z,9.309237
2023-04-22T01:51:21.151Z,9.309252
2023-04-22T01:52:21.218Z,9.309218
2023-04-22T01:53:21.219Z,9.309175
2023-04-22T01:54:21.201Z,9.309269
2023-04-22T01:55:21.244Z,9.309336
2023-04-22T01:56:21.249Z,9.309284
2023-04-22T01:57:21.191Z,9.309313
2023-04-22T01:58:21.186Z,9.309346
2023-04-22T01:59:21.225Z,9.309294
2023-04-22T02:00:21.225Z,9.309233
2023-04-22T02:01:21.312Z,9.309256
2023-04-22T02:02:21.317Z,9.309204
2023-04-22T02:03:21.446Z,9.309260
2023-04-22T02:04:21.116Z,9.309365
2023-04-22T02:05:21.227Z,9.309291
2023-04-22T02:06:21.124Z,9.309262
2023-04-22T02:07:21.028Z,9.309300
2023-04-22T02:08:21.010Z,9.309148
2023-04-22T02:09:21.067Z,9.309105
2023-04-22T02:10:21.086Z,9.308965
2023-04-22T02:11:21.087Z,9.309029
2023-04-22T02:12:21.109Z,9.309046
2023-04-22T02:13:21.142Z,9.309153
2023-04-22T02:14:21.018Z,9.309089
2023-04-22T02:15:21.121Z,9.309031
2023-04-22T02:16:21.018Z,9.309174
2023-04-22T02:17:21.083Z,9.309172
2023-04-22T02:18:21.067Z,9.309161
2023-04-22T02:19:21.037Z,9.309223
2023-04-22T02:20:53.001Z,9.309095
2023-04-22T02:21:21.059Z,9.309006
2023-04-22T02:22:21.033Z,9.308994
2023-04-22T02:23:21.044Z,9.308970
2023-04-22T02:24:20.898Z,9.308884
2023-04-22T02:25:20.949Z,9.308921
2023-04-22T02:26:20.976Z,9.308984
2023-04-22T02:27:20.961Z,9.309000
2023-04-22T02:28:21.104Z,9.309071
2023-04-22T02:29:20.980Z,9.309105
2023-04-22T02:30:21.037Z,9.309060
2023-04-22T02:31:20.940Z,9.309056
2023-04-22T02:32:21.015Z,9.309155
2023-04-22T02:33:20.887Z,9.309134
2023-04-22T02:34:21.098Z,9.309070
2023-04-22T02:35:20.901Z,9.309103
2023-04-22T02:36:20.853Z,9.309080
2023-04-22T02:37:20.949Z,9.309080
2023-04-22T02:38:20.865Z,9.309032
2023-04-22T02:39:21.123Z,9.308999
2023-04-22T02:40:20.898Z,9.309045
2023-04-22T02:41:20.754Z,9.309185
2023-04-22T02:42:20.793Z,9.309128
2023-04-22T02:43:20.849Z,9.309087
2023-04-22T02:44:20.783Z,9.309036
2023-04-22T02:45:20.842Z,9.309248
2023-04-22T02:46:20.789Z,9.309164
2023-04-22T02:47:20.778Z,9.309091
2023-04-22T02:48:20.769Z,9.309136
2023-04-22T02:49:20.705Z,9.309158
2023-04-22T02:50:20.799Z,9.309123
2023-04-22T02:51:20.907Z,9.309127
2023-04-22T02:52:20.759Z,9.309150
2023-04-22T02:53:20.879Z,9.309107
2023-04-22T02:54:20.798Z,9.309134
2023-04-22T02:55:53.034Z,9.309134
2023-04-22T03:03:01.932Z,9.309106
2023-04-22T03:03:29.074Z,9.309058
2023-04-22T03:05:00.880Z,9.309098
2023-04-22T03:05:28.746Z,9.309074
2023-04-22T03:06:28.929Z,9.309125
2023-04-22T03:07:28.918Z,9.309114
2023-04-22T03:08:28.812Z,9.309061
2023-04-22T03:09:28.839Z,9.309031
2023-04-22T03:10:28.873Z,9.309058
2023-04-22T03:11:28.839Z,9.309097
2023-04-22T03:12:28.876Z,9.309106
2023-04-22T03:13:28.796Z,9.309054
2023-04-22T03:14:28.717Z,9.309051
2023-04-22T03:15:28.707Z,9.309074
2023-04-22T03:16:28.726Z,9.309088
2023-04-22T03:17:29.008Z,9.309110
2023-04-22T03:18:28.947Z,9.309049
2023-04-22T03:19:28.672Z,9.309066
2023-04-22T03:20:28.677Z,9.309014
2023-04-22T03:21:28.719Z,9.309041
2023-04-22T03:22:29.091Z,9.309085
2023-04-22T03:23:28.681Z,9.309078
2023-04-22T03:24:28.722Z,9.308981
2023-04-22T03:25:28.721Z,9.309069
2023-04-22T03:26:28.711Z,9.309040
2023-04-22T03:27:28.780Z,9.308959
2023-04-22T03:28:28.771Z,9.308985
2023-04-22T03:29:28.714Z,9.308990
2023-04-22T03:30:28.710Z,9.309020
2023-04-22T03:31:28.725Z,9.309019
2023-04-22T03:32:28.763Z,9.308940
2023-04-22T03:33:28.740Z,9.308878
2023-04-22T03:34:28.709Z,9.309008
2023-04-22T03:35:28.684Z,9.309061
2023-04-22T03:36:28.621Z,9.309060
2023-04-22T03:37:28.615Z,9.309077
2023-04-22T03:38:28.561Z,9.309099
2023-04-22T03:39:29.036Z,9.309038
2023-04-22T03:40:28.778Z,9.309020
2023-04-22T03:41:28.560Z,9.309064
2023-04-22T03:42:28.587Z,9.309095
2023-04-22T03:43:28.549Z,9.309089
2023-04-22T03:44:28.763Z,9.309061
2023-04-22T03:45:28.627Z,9.309068
2023-04-22T03:46:28.847Z,9.309056
2023-04-22T03:47:28.600Z,9.309080
2023-04-22T03:48:28.608Z,9.309097
2023-04-22T03:49:28.591Z,9.309029
2023-04-22T03:50:28.601Z,9.309039
2023-04-22T03:51:28.615Z,9.309040
2023-04-22T03:52:28.546Z,9.309037
2023-04-22T03:53:28.557Z,9.308990
2023-04-22T03:54:28.571Z,9.309052
2023-04-22T03:55:28.627Z,9.308996
2023-04-22T03:56:28.531Z,9.308954
2023-04-22T03:57:28.430Z,9.309030
2023-04-22T03:58:28.419Z,9.309110
2023-04-22T03:59:28.397Z,9.309089
2023-04-22T04:00:28.420Z,9.309073
2023-04-22T04:01:28.517Z,9.309068
2023-04-22T04:02:28.567Z,9.309057
2023-04-22T04:03:30.446Z,9.309011
2023-04-22T04:04:29.681Z,9.309026
2023-04-22T04:05:28.558Z,9.308994
2023-04-22T04:06:28.538Z,9.308932
2023-04-22T04:07:28.482Z,9.309086
2023-04-22T04:08:28.468Z,9.309133
2023-04-22T04:09:28.361Z,9.309261
2023-04-22T04:10:28.442Z,9.309329
2023-04-22T04:11:28.589Z,9.309122
2023-04-22T04:12:28.435Z,9.309103
2023-04-22T04:13:28.560Z,9.309100
2023-04-22T04:14:28.348Z,9.309114
2023-04-22T04:15:28.369Z,9.309070
2023-04-22T04:16:28.692Z,9.309099
2023-04-22T04:17:28.448Z,9.309084
2023-04-22T04:18:28.484Z,9.309018
2023-04-22T04:19:28.300Z,9.309152
2023-04-22T04:20:28.406Z,9.309014
2023-04-22T04:21:28.346Z,9.309072
2023-04-22T04:22:28.379Z,9.309028
2023-04-22T04:23:28.311Z,9.309018
2023-04-22T04:24:28.355Z,9.308968
2023-04-22T04:25:28.322Z,9.309031
2023-04-22T04:26:33.169Z,9.309060
2023-04-22T04:27:29.396Z,9.309099
2023-04-22T04:28:28.309Z,9.309096
2023-04-22T04:29:28.278Z,9.309123
2023-04-22T04:30:28.327Z,9.309067
2023-04-22T04:31:28.206Z,9.309052
2023-04-22T04:32:28.213Z,9.309037
2023-04-22T04:33:28.391Z,9.309042
2023-04-22T04:34:28.174Z,9.308967
2023-04-22T04:35:28.135Z,9.309010
2023-04-22T04:36:28.159Z,9.308991
2023-04-22T04:37:28.256Z,9.308970
2023-04-22T04:38:28.284Z,9.308979
2023-04-22T04:39:28.248Z,9.309041
2023-04-22T04:40:28.209Z,9.309004
2023-04-22T04:41:28.288Z,9.309026
2023-04-22T04:42:28.226Z,9.309003
2023-04-22T04:43:28.203Z,9.309068
2023-04-22T04:44:28.633Z,9.309027
2023-04-22T04:45:28.325Z,9.309035
2023-04-22T04:46:28.271Z,9.309046
2023-04-22T04:47:28.239Z,9.309088
2023-04-22T04:48:28.161Z,9.309082
2023-04-22T04:49:28.160Z,9.309063
2023-04-22T04:50:28.170Z,9.309091
2023-04-22T04:51:28.167Z,9.309135
2023-04-22T04:52:28.175Z,9.309126
2023-04-22T04:53:28.470Z,9.309112
2023-04-22T04:54:28.006Z,9.309046
2023-04-22T04:55:28.062Z,9.309079
2023-04-22T04:56:28.120Z,9.309095
2023-04-22T04:57:27.997Z,9.309106
2023-04-22T04:58:27.953Z,9.309070
2023-04-22T04:59:27.995Z,9.309053
2023-04-22T05:00:27.989Z,9.309003
2023-04-22T05:01:28.017Z,9.309045
2023-04-22T05:02:28.110Z,9.309015
2023-04-22T05:03:28.062Z,9.309069
2023-04-22T05:04:28.325Z,9.309054
2023-04-22T05:05:28.124Z,9.309050
2023-04-22T05:06:28.049Z,9.309042
2023-04-22T05:07:28.020Z,9.308952
2023-04-22T05:08:28.090Z,9.309033
2023-04-22T05:09:27.956Z,9.308996
2023-04-22T05:10:28.050Z,9.309053
2023-04-22T05:11:28.068Z,9.309098
2023-04-22T05:12:28.094Z,9.309078
2023-04-22T05:13:27.968Z,9.309114
2023-04-22T05:14:27.985Z,9.308995
2023-04-22T05:15:28.012Z,9.308963
2023-04-22T05:16:28.087Z,9.309041
2023-04-22T05:17:28.009Z,9.309101
2023-04-22T05:18:28.022Z,9.309077
2023-04-22T05:19:28.009Z,9.308870
2023-04-22T05:20:28.002Z,9.308865
2023-04-22T05:21:27.920Z,9.309074
2023-04-22T05:22:36.441Z,9.309123
2023-04-22T05:23:38.703Z,9.309088
2023-04-22T05:24:28.853Z,9.309164
2023-04-22T05:25:27.817Z,9.309212
2023-04-22T05:26:27.846Z,9.308998
2023-04-22T05:27:27.834Z,9.309018
2023-04-22T05:28:27.789Z,9.309110
2023-04-22T05:29:27.735Z,9.309164
2023-04-22T05:30:27.800Z,9.309156
2023-04-22T05:31:27.814Z,9.309109
2023-04-22T05:32:27.835Z,9.309101
2023-04-22T05:33:27.937Z,9.309124
2023-04-22T05:34:27.935Z,9.309212
2023-04-22T05:35:27.904Z,9.309122
2023-04-22T05:36:29.725Z,9.309137
2023-04-22T05:37:27.870Z,9.309120
2023-04-22T05:38:27.796Z,9.309222
2023-04-22T05:39:27.951Z,9.309175
2023-04-22T05:40:27.833Z,9.309218
2023-04-22T05:41:27.850Z,9.309151
2023-04-22T05:42:27.888Z,9.309051
2023-04-22T05:43:27.903Z,9.309111
2023-04-22T05:44:27.806Z,9.309101
2023-04-22T05:45:27.823Z,9.309102
2023-04-22T05:46:27.847Z,9.309106
2023-04-22T05:47:27.787Z,9.309126
2023-04-22T05:48:27.777Z,9.309180
2023-04-22T05:49:28.198Z,9.309088
2023-04-22T05:50:28.851Z,9.309115
2023-04-22T05:51:27.728Z,9.309192
2023-04-22T05:52:27.764Z,9.309169
2023-04-22T05:53:27.722Z,9.309192
2023-04-22T05:54:27.974Z,9.309221
2023-04-22T05:55:27.632Z,9.309195
2023-04-22T05:56:27.614Z,9.309217
2023-04-22T05:57:27.636Z,9.309142
2023-04-22T05:58:27.567Z,9.309059
2023-04-22T05:59:27.549Z,9.309174
2023-04-22T06:00:27.710Z,9.309185
2023-04-22T06:01:28.825Z,9.309126
2023-04-22T06:02:28.002Z,9.309131
2023-04-22T06:03:27.934Z,9.309135
2023-04-22T06:04:27.997Z,9.309204
2023-04-22T06:05:27.780Z,9.309162
2023-04-22T06:06:29.740Z,9.309125
2023-04-22T06:07:28.509Z,9.309099
2023-04-22T06:08:27.616Z,9.309102
2023-04-22T06:09:27.526Z,9.309145
2023-04-22T06:10:27.592Z,9.309134
2023-04-22T06:11:27.666Z,9.309067
2023-04-22T06:12:27.591Z,9.309094
2023-04-22T06:13:27.624Z,9.309069
2023-04-22T06:14:27.556Z,9.309104
2023-04-22T06:15:27.562Z,9.309145
2023-04-22T06:16:27.640Z,9.309058
2023-04-22T06:17:27.582Z,9.309063
2023-04-22T06:18:28.270Z,9.309110
2023-04-22T06:19:27.463Z,9.309119
2023-04-22T06:20:27.421Z,9.309109
2023-04-22T06:21:27.443Z,9.309086
2023-04-22T06:22:27.447Z,9.309096
2023-04-22T06:23:27.397Z,9.309084
2023-04-22T06:24:27.459Z,9.309106
2023-04-22T06:25:27.395Z,9.309112
2023-04-22T06:26:27.391Z,9.309194
2023-04-22T06:27:27.596Z,9.309139
2023-04-22T06:28:27.496Z,9.309111
2023-04-22T06:29:27.502Z,9.309120
2023-04-22T06:30:27.451Z,9.309135
2023-04-22T06:31:27.503Z,9.309134
2023-04-22T06:32:27.458Z,9.309122
2023-04-22T06:33:27.484Z,9.309136
2023-04-22T06:34:27.483Z,9.309138
2023-04-22T06:35:27.509Z,9.309095
2023-04-22T06:36:29.709Z,9.309080
2023-04-22T06:37:28.394Z,9.309102
2023-04-22T06:38:27.496Z,9.309129
2023-04-22T06:39:27.390Z,9.309085
2023-04-22T06:40:27.475Z,9.309059
2023-04-22T06:41:27.346Z,9.309032
2023-04-22T06:42:27.314Z,9.309076
2023-04-22T06:43:27.257Z,9.309046
2023-04-22T06:44:27.498Z,9.309099
2023-04-22T06:45:27.264Z,9.309063
2023-04-22T06:46:27.371Z,9.309096
2023-04-22T06:47:27.273Z,9.309086
2023-04-22T06:48:27.311Z,9.308992
2023-04-22T06:49:27.584Z,9.309033
2023-04-22T06:50:27.329Z,9.309096
2023-04-22T06:51:27.338Z,9.309114
2023-04-22T06:52:27.361Z,9.309120
2023-04-22T06:53:27.431Z,9.309072
2023-04-22T06:54:27.296Z,9.309042
2023-04-22T06:55:27.317Z,9.309077
2023-04-22T06:56:27.279Z,9.309108
2023-04-22T06:57:27.289Z,9.309104
2023-04-22T06:58:27.234Z,9.309108
2023-04-22T06:59:27.272Z,9.309077
2023-04-22T07:00:27.681Z,9.309114
2023-04-22T07:01:28.337Z,9.309100
2023-04-22T07:02:27.240Z,9.309164
2023-04-22T07:03:27.251Z,9.309137
2023-04-22T07:04:27.195Z,9.309116
2023-04-22T07:05:27.111Z,9.309050
2023-04-22T07:06:27.244Z,9.309132
2023-04-22T07:07:27.188Z,9.309078
2023-04-22T07:08:27.178Z,9.309085
2023-04-22T07:09:27.133Z,9.309109
2023-04-22T07:10:27.213Z,9.309125
2023-04-22T07:11:27.214Z,9.309072
2023-04-22T07:12:27.162Z,9.309038
2023-04-22T07:13:27.097Z,9.309093
2023-04-22T07:14:27.154Z,9.309084
2023-04-22T07:15:27.123Z,9.309117
2023-04-22T07:16:27.130Z,9.309171
2023-04-22T07:17:27.189Z,9.309149
2023-04-22T07:18:27.077Z,9.309154
2023-04-22T07:19:27.091Z,9.309152
2023-04-22T07:20:27.080Z,9.309152
2023-04-22T07:21:27.088Z,9.309227
2023-04-22T07:22:27.092Z,9.309159
2023-04-22T07:23:27.095Z,9.309143
2023-04-22T07:24:27.175Z,9.309160
2023-04-22T07:25:27.047Z,9.309109
2023-04-22T07:26:27.085Z,9.309072
2023-04-22T07:27:27.050Z,9.309097
2023-04-22T07:28:27.170Z,9.309143
2023-04-22T07:29:27.020Z,9.309152
2023-04-22T07:30:27.149Z,9.309128
2023-04-22T07:31:27.267Z,9.309121
2023-04-22T07:32:26.920Z,9.309105
2023-04-22T07:33:26.926Z,9.309137
2023-04-22T07:34:27.025Z,9.309116
2023-04-22T07:35:26.930Z,9.309134
2023-04-22T07:36:26.899Z,9.309093
2023-04-22T07:37:26.864Z,9.309116
2023-04-22T07:38:26.849Z,9.309109
2023-04-22T07:39:26.872Z,9.309116
2023-04-22T07:40:27.014Z,9.309084
2023-04-22T07:41:26.941Z,9.309109
2023-04-22T07:42:26.953Z,9.309131
2023-04-22T07:43:26.930Z,9.309067
2023-04-22T07:44:26.997Z,9.309038
2023-04-22T07:45:26.917Z,9.309025
2023-04-22T07:46:26.905Z,9.309072
2023-04-22T07:47:26.940Z,9.309105
2023-04-22T07:48:26.911Z,9.309175
2023-04-22T07:49:26.968Z,9.309127
2023-04-22T07:50:27.376Z,9.309041
2023-04-22T07:51:26.958Z,9.309079
2023-04-22T07:52:26.926Z,9.309088
2023-04-22T07:53:26.977Z,9.309095
2023-04-22T07:54:26.883Z,9.309068
2023-04-22T07:55:26.852Z,9.309019
2023-04-22T07:56:27.830Z,9.309059
2023-04-22T07:57:26.894Z,9.309044
2023-04-22T07:58:26.849Z,9.309056
2023-04-22T07:59:26.845Z,9.309026
2023-04-22T08:00:26.771Z,9.309032
2023-04-22T08:01:26.889Z,9.309058
2023-04-22T08:02:26.917Z,9.309085
2023-04-22T08:03:26.954Z,9.309087
2023-04-22T08:04:27.072Z,9.309097
2023-04-22T08:05:26.868Z,9.309056
2023-04-22T08:06:26.812Z,9.309020
2023-04-22T08:07:32.970Z,9.308990
2023-04-22T08:08:28.629Z,9.309002
2023-04-22T08:09:26.689Z,9.309049
2023-04-22T08:10:26.683Z,9.309101
2023-04-22T08:11:27.415Z,9.309131
2023-04-22T08:12:26.792Z,9.309004
2023-04-22T08:13:26.727Z,9.308954
2023-04-22T08:14:26.850Z,9.308934
2023-04-22T08:15:26.729Z,9.308948
2023-04-22T08:16:26.886Z,9.309023
2023-04-22T08:17:26.849Z,9.309070
2023-04-22T08:18:26.697Z,9.309065
2023-04-22T08:19:26.679Z,9.309028
2023-04-22T08:20:26.717Z,9.309048
2023-04-22T08:21:26.683Z,9.309026
2023-04-22T08:22:26.692Z,9.308981
2023-04-22T08:23:26.686Z,9.308920
2023-04-22T08:24:26.650Z,9.308977
2023-04-22T08:25:26.603Z,9.309037
2023-04-22T08:26:26.953Z,9.308974
2023-04-22T08:27:26.655Z,9.308957
2023-04-22T08:28:26.720Z,9.309031
2023-04-22T08:29:26.624Z,9.309043
2023-04-22T08:30:26.722Z,9.309014
2023-04-22T08:31:26.771Z,9.309035
2023-04-22T08:32:26.693Z,9.309069
2023-04-22T08:33:27.385Z,9.309073
2023-04-22T08:34:27.703Z,9.309039
2023-04-22T08:35:27.047Z,9.309016
2023-04-22T08:36:26.572Z,9.309094
2023-04-22T08:37:26.481Z,9.309005
2023-04-22T08:38:26.644Z,9.308905
2023-04-22T08:39:26.519Z,9.308905
2023-04-22T08:40:26.424Z,9.308888
2023-04-22T08:41:26.479Z,9.308891
2023-04-22T08:42:26.590Z,9.308883
2023-04-22T08:43:26.446Z,9.308947
2023-04-22T08:44:26.487Z,9.308975
2023-04-22T08:45:26.437Z,9.308964
2023-04-22T08:46:26.545Z,9.308900
2023-04-22T08:47:26.457Z,9.308934
2023-04-22T08:48:26.358Z,9.308937
2023-04-22T08:49:26.464Z,9.308987
2023-04-22T08:50:26.520Z,9.308941
2023-04-22T08:51:26.491Z,9.308885
2023-04-22T08:52:26.531Z,9.308903
2023-04-22T08:53:26.459Z,9.308976
2023-04-22T08:54:26.482Z,9.309020
2023-04-22T08:55:26.681Z,9.309036
2023-04-22T08:56:26.470Z,9.309012
2023-04-22T08:57:26.405Z,9.308997
2023-04-22T08:58:26.471Z,9.309059
2023-04-22T08:59:26.388Z,9.309087
2023-04-22T09:00:26.490Z,9.309107
2023-04-22T09:01:26.420Z,9.309071
2023-04-22T09:02:26.573Z,9.309063
2023-04-22T09:03:26.435Z,9.309019
2023-04-22T09:04:26.418Z,9.309028
2023-04-22T09:05:27.863Z,9.309078
2023-04-22T09:06:26.388Z,9.309130
2023-04-22T09:07:27.134Z,9.309136
2023-04-22T09:08:26.562Z,9.309112
2023-04-22T09:09:26.446Z,9.309069
2023-04-22T09:10:26.357Z,9.309094
2023-04-22T09:11:27.178Z,9.309139
2023-04-22T09:12:26.361Z,9.309170
2023-04-22T09:13:26.359Z,9.309110
2023-04-22T09:14:26.485Z,9.309085
2023-04-22T09:15:26.355Z,9.309073
2023-04-22T09:16:26.380Z,9.309100
2023-04-22T09:17:26.393Z,9.309114
2023-04-22T09:18:26.376Z,9.309092
2023-04-22T09:19:26.299Z,9.309136
2023-04-22T09:20:26.222Z,9.309086
2023-04-22T09:21:26.370Z,9.309055
2023-04-22T09:22:26.451Z,9.309053
2023-04-22T09:23:26.352Z,9.309014
2023-04-22T09:24:26.224Z,9.309066
2023-04-22T09:25:27.268Z,9.309095
2023-04-22T09:26:26.225Z,9.309128
2023-04-22T09:27:26.194Z,9.309141
2023-04-22T09:28:26.244Z,9.309099
2023-04-22T09:29:26.220Z,9.309094
2023-04-22T09:30:26.187Z,9.309109
2023-04-22T09:31:26.216Z,9.309093
2023-04-22T09:32:26.219Z,9.309091
2023-04-22T09:33:26.200Z,9.309072
2023-04-22T09:34:26.080Z,9.309048
2023-04-22T09:35:26.258Z,9.309038
2023-04-22T09:36:26.078Z,9.309072
2023-04-22T09:37:28.990Z,9.309116
2023-04-22T09:38:28.119Z,9.309141
2023-04-22T09:39:26.045Z,9.309143
2023-04-22T09:40:26.174Z,9.309050
2023-04-22T09:41:26.140Z,9.309109
2023-04-22T09:42:26.167Z,9.309083
2023-04-22T09:43:26.225Z,9.309068
2023-04-22T09:44:26.237Z,9.309136
2023-04-22T09:45:26.106Z,9.309102
2023-04-22T09:46:26.317Z,9.309063
2023-04-22T09:47:26.099Z,9.309064
2023-04-22T09:48:26.098Z,9.309114
2023-04-22T09:49:26.140Z,9.309134
2023-04-22T09:50:26.205Z,9.309132
2023-04-22T09:51:26.048Z,9.309010
2023-04-22T09:52:26.112Z,9.309003
2023-04-22T09:53:26.038Z,9.309083
2023-04-22T09:54:26.204Z,9.309086
2023-04-22T09:55:26.069Z,9.309130
2023-04-22T09:56:26.033Z,9.309056
2023-04-22T09:57:26.160Z,9.309037
2023-04-22T09:58:26.155Z,9.309076
2023-04-22T09:59:25.995Z,9.309120
2023-04-22T10:00:26.443Z,9.309119
2023-04-22T10:01:26.271Z,9.309053
2023-04-22T10:02:26.353Z,9.309131
2023-04-22T10:03:25.981Z,9.309046
2023-04-22T10:04:26.897Z,9.309043
2023-04-22T10:05:25.874Z,9.308953
2023-04-22T10:06:25.891Z,9.308932
2023-04-22T10:07:25.838Z,9.309061
2023-04-22T10:08:25.838Z,9.309039
2023-04-22T10:09:25.846Z,9.308999
2023-04-22T10:10:25.833Z,9.308961
2023-04-22T10:11:25.953Z,9.308975
2023-04-22T10:12:32.835Z,9.309013
2023-04-22T10:13:27.881Z,9.309066
2023-04-22T10:14:25.807Z,9.309053
2023-04-22T10:15:27.012Z,9.309072
2023-04-22T10:16:27.002Z,9.309049
2023-04-22T10:17:26.052Z,9.309064
2023-04-22T10:18:25.881Z,9.309095
2023-04-22T10:19:25.875Z,9.309052
2023-04-22T10:20:25.892Z,9.309017
2023-04-22T10:21:37.970Z,9.309022
2023-04-22T10:22:25.769Z,9.309059
2023-04-22T10:23:25.846Z,9.309079
2023-04-22T10:24:25.848Z,9.309052
2023-04-22T10:25:25.796Z,9.309048
2023-04-22T10:26:25.874Z,9.309131
2023-04-22T10:27:25.847Z,9.309134
2023-04-22T10:28:25.740Z,9.309145
2023-04-22T10:29:25.728Z,9.309082
2023-04-22T10:30:25.754Z,9.308983
2023-04-22T10:31:25.885Z,9.308970
2023-04-22T10:32:25.781Z,9.309005
2023-04-22T10:33:25.629Z,9.309063
2023-04-22T10:34:25.630Z,9.309066
2023-04-22T10:35:25.606Z,9.309114
2023-04-22T10:36:25.586Z,9.309093
2023-04-22T10:37:25.675Z,9.309057
2023-04-22T10:38:25.608Z,9.309091
2023-04-22T10:39:25.839Z,9.309118
2023-04-22T10:40:25.734Z,9.309131
2023-04-22T10:41:25.676Z,9.309090
2023-04-22T10:42:25.674Z,9.309124
2023-04-22T10:43:25.697Z,9.309142
2023-04-22T10:44:25.661Z,9.309119
2023-04-22T10:45:25.645Z,9.309135
2023-04-22T10:46:25.682Z,9.309147
2023-04-22T10:47:25.715Z,9.309134
2023-04-22T10:48:25.623Z,9.309125
2023-04-22T10:49:25.763Z,9.309076
2023-04-22T10:50:25.589Z,9.309095
2023-04-22T10:51:25.693Z,9.309101
2023-04-22T10:52:25.627Z,9.309122
2023-04-22T10:53:25.553Z,9.309079
2023-04-22T10:54:25.979Z,9.309056
2023-04-22T10:55:25.624Z,9.309096
2023-04-22T10:56:25.525Z,9.309116
2023-04-22T10:57:25.709Z,9.309091
2023-04-22T10:58:25.675Z,9.309054
2023-04-22T10:59:25.622Z,9.309052
2023-04-22T11:00:25.491Z,9.309132
2023-04-22T11:01:25.451Z,9.309082
2023-04-22T11:02:25.540Z,9.309118
2023-04-22T11:03:25.459Z,9.309102
2023-04-22T11:04:25.621Z,9.309096
2023-04-22T11:05:26.234Z,9.309103
2023-04-22T11:06:26.445Z,9.309094
2023-04-22T11:07:25.393Z,9.309091
2023-04-22T11:08:25.537Z,9.309084
2023-04-22T11:09:25.379Z,9.309116
2023-04-22T11:10:25.457Z,9.309143
2023-04-22T11:11:25.463Z,9.309086
2023-04-22T11:12:25.410Z,9.309064
2023-04-22T11:13:25.438Z,9.309107
2023-04-22T11:14:26.422Z,9.309183
2023-04-22T11:15:25.396Z,9.309198
2023-04-22T11:16:25.513Z,9.309211
2023-04-22T11:17:25.409Z,9.309203
2023-04-22T11:18:25.408Z,9.309164
2023-04-22T11:19:25.350Z,9.309177
2023-04-22T11:20:25.519Z,9.309147
2023-04-22T11:21:25.368Z,9.309108
2023-04-22T11:22:25.312Z,9.309090
2023-04-22T11:23:25.387Z,9.309069
2023-04-22T11:24:25.323Z,9.309082
2023-04-22T11:25:25.472Z,9.309055
2023-04-22T11:26:25.265Z,9.308990
2023-04-22T11:27:25.334Z,9.309028
2023-04-22T11:28:25.227Z,9.309043
2023-04-22T11:29:25.329Z,9.309017
2023-04-22T11:30:25.302Z,9.308987
2023-04-22T11:31:25.391Z,9.308978
2023-04-22T11:32:25.383Z,9.308998
2023-04-22T11:33:25.444Z,9.309062
2023-04-22T11:34:25.321Z,9.309076
2023-04-22T11:35:25.422Z,9.309020
2023-04-22T11:36:25.255Z,9.309005
2023-04-22T11:37:25.398Z,9.309052
2023-04-22T11:38:25.288Z,9.309027
2023-04-22T11:39:25.345Z,9.309098
2023-04-22T11:40:30.797Z,9.309148
2023-04-22T11:41:27.314Z,9.309097
2023-04-22T11:42:25.147Z,9.309054
2023-04-22T11:43:25.333Z,9.309006
2023-04-22T11:44:25.233Z,9.309008
2023-04-22T11:45:25.247Z,9.309042
2023-04-22T11:46:25.168Z,9.309033
2023-04-22T11:47:25.081Z,9.309080
2023-04-22T11:48:25.131Z,9.309054
2023-04-22T11:49:25.198Z,9.309000
2023-04-22T11:50:25.131Z,9.309048
2023-04-22T11:51:25.083Z,9.309067
2023-04-22T11:52:25.063Z,9.309035
2023-04-22T11:53:25.100Z,9.309042